Time;durP1;ratioP1;P1;durP2;ratioP2;P2;SDS_P1;SDS_P2;PMS_P1;PMS_P2;Temp;Humidity;BMP_temperature;BMP_pressure;BME280_temperature;BME280_humidity;BME280_pressure;Samples;Min_cycle;Max_cycle;Signal;HPM_P1;HPM_P2
2022/05/22 00:01:06;;;;;;;4.73;1.20;;;;;;;12.12;100.00;100521.91;5195185;56;1141276;-72
2022/05/22 00:06:12;;;;;;;4.70;1.10;;;;;;;12.11;100.00;100524.20;5215403;56;1141264;-72
2022/05/22 00:11:17;;;;;;;1.60;0.50;;;;;;;12.10;100.00;100523.00;5216114;56;1141127;-70
2022/05/22 00:16:40;;;;;;;1.23;0.60;;;;;;;12.04;100.00;100522.20;5210418;56;1141091;-72
2022/05/22 00:21:45;;;;;;;;;;;;;;;12.01;100.00;100514.02;5133900;56;1141264;-71
2022/05/22 00:26:53;;;;;;;1.37;0.80;;;;;;;12.00;100.00;100514.98;5132430;57;978477;-71
2022/05/22 00:31:59;;;;;;;0.60;0.60;;;;;;;11.99;100.00;100518.61;5104712;57;1139049;-71
2022/05/22 00:37:06;;;;;;;0.90;0.90;;;;;;;11.98;100.00;100518.25;5046112;58;1141383;-72
2022/05/22 00:42:18;;;;;;;1.93;0.87;;;;;;;11.98;100.00;100514.27;5022351;58;1141138;-72
2022/05/22 00:47:23;;;;;;;;;;;;;;;11.97;100.00;100512.59;5050143;58;1141075;-71
2022/05/22 00:52:45;;;;;;;2.07;0.90;;;;;;;11.92;100.00;100503.69;4963848;58;978423;-70
2022/05/22 00:57:58;;;;;;;3.53;0.80;;;;;;;11.85;100.00;100513.12;5034065;58;1139328;-72
2022/05/22 01:08:35;;;;;;;2.00;0.77;;;;;;;11.76;100.00;100500.66;5041956;58;1141131;-71
2022/05/22 01:14:08;;;;;;;3.03;0.83;;;;;;;11.76;100.00;100505.11;5042358;58;1140985;-73
2022/05/22 01:19:21;;;;;;;2.02;0.90;;;;;;;11.72;100.00;100509.78;4813953;59;1141222;-74
2022/05/22 01:24:28;;;;;;;0.93;0.83;;;;;;;11.72;100.00;100516.41;4952915;59;1141284;-75
2022/05/22 01:29:34;;;;;;;1.23;0.70;;;;;;;11.60;100.00;100497.08;4950422;59;1141175;-76
2022/05/22 01:34:41;;;;;;;0.57;0.50;;;;;;;11.64;100.00;100516.18;4809836;61;1139259;-72
2022/05/22 01:39:47;;;;;;;1.20;0.80;;;;;;;11.61;100.00;100513.30;4953495;59;1139225;-72
2022/05/22 01:44:54;;;;;;;2.93;0.60;;;;;;;11.57;100.00;100513.69;4848259;60;1139229;-72
2022/05/22 01:50:00;;;;;;;1.83;0.63;;;;;;;11.58;100.00;100516.22;4830136;60;1139232;-76
2022/05/22 01:55:07;;;;;;;1.73;0.80;;;;;;;11.61;100.00;100515.10;4945853;58;1139070;-73
2022/05/22 02:00:17;;;;;;;2.07;1.20;;;;;;;11.60;100.00;100515.61;5002429;58;1139192;-74
2022/05/22 02:05:22;;;;;;;0.60;0.60;;;;;;;11.58;100.00;100508.27;5060433;57;1139096;-75
2022/05/22 02:10:31;;;;;;;1.87;1.20;;;;;;;11.62;100.00;100504.86;5060092;57;1139037;-72
2022/05/22 02:15:37;;;;;;;4.33;1.20;;;;;;;11.64;100.00;100510.40;5059334;57;1138956;-76
2022/05/22 02:20:47;;;;;;;3.90;1.10;;;;;;;11.61;100.00;100507.99;5060275;57;1139092;-76
2022/05/22 02:25:56;;;;;;;5.77;1.60;;;;;;;11.55;100.00;100498.41;5055642;57;1139160;-74
2022/05/22 02:31:03;;;;;;;9.27;1.20;;;;;;;11.51;100.00;100489.86;5060183;58;1139284;-69
2022/05/22 02:36:13;;;;;;;3.03;1.00;;;;;;;11.48;100.00;100490.11;4980130;59;1139079;-74
2022/05/22 02:41:20;;;;;;;2.70;1.27;;;;;;;11.37;100.00;100495.45;5061950;58;1139070;-77
2022/05/22 02:46:35;;;;;;;15.85;2.00;;;;;;;11.29;100.00;100491.27;4991864;59;1141053;-71
2022/05/22 02:51:40;;;;;;;6.17;1.40;;;;;;;11.21;100.00;100487.91;4982444;57;1143716;-75
2022/05/22 02:56:46;;;;;;;1.60;1.10;;;;;;;11.14;100.00;100495.99;4977070;58;1151876;-73
2022/05/22 03:01:59;;;;;;;5.70;1.53;;;;;;;11.08;100.00;100493.83;5061928;58;1141206;-71
2022/05/22 03:07:05;;;;;;;1.50;1.33;;;;;;;11.07;100.00;100497.91;5061972;58;1141132;-76
2022/05/22 03:12:21;;;;;;;6.27;1.60;;;;;;;11.12;100.00;100495.27;5032758;58;1141089;-74
2022/05/22 03:17:29;;;;;;;4.53;1.77;;;;;;;11.13;100.00;100489.02;5054054;58;1141536;-76
2022/05/22 03:22:36;;;;;;;2.00;1.77;;;;;;;11.11;100.00;100484.80;4983883;58;1141061;-71
2022/05/22 03:27:42;;;;;;;4.63;1.77;;;;;;;11.12;100.00;100484.69;4957950;59;1141159;-72
2022/05/22 03:32:48;;;;;;;2.87;1.50;;;;;;;11.12;100.00;100489.13;4957510;59;1141345;-76
2022/05/22 03:37:54;;;;;;;2.50;1.43;;;;;;;11.11;100.00;100483.00;4937693;59;1141116;-70
2022/05/22 03:43:01;;;;;;;4.23;2.20;;;;;;;11.18;100.00;100481.52;4957973;59;1141439;-72
2022/05/22 03:48:07;;;;;;;7.27;1.73;;;;;;;11.23;100.00;100479.36;4960373;59;1141549;-74
2022/05/22 03:53:14;;;;;;;4.93;1.80;;;;;;;11.25;100.00;100477.91;4967583;59;1141195;-74
2022/05/22 03:58:21;;;;;;;3.70;1.73;;;;;;;11.28;100.00;100484.29;4967527;59;1141111;-74
2022/05/22 04:03:27;;;;;;;14.33;2.33;;;;;;;11.26;100.00;100487.06;4967463;59;1141137;-74
2022/05/22 04:08:35;;;;;;;4.75;1.98;;;;;;;11.24;100.00;100487.66;4960810;59;1143393;-72
2022/05/22 04:13:42;;;;;;;7.10;2.83;;;;;;;11.26;100.00;100497.64;4957815;59;1141085;-75
2022/05/22 04:18:49;;;;;;;10.23;1.80;;;;;;;11.29;100.00;100499.21;4979893;59;1141217;-72
2022/05/22 04:29:18;;;;;;;7.23;3.10;;;;;;;11.31;100.00;100485.82;4935506;59;1141365;-72
2022/05/22 04:34:24;;;;;;;8.97;1.83;;;;;;;11.27;100.00;100479.95;4966231;59;1141115;-73
2022/05/22 04:39:32;;;;;;;4.63;1.60;;;;;;;11.22;100.00;100479.00;4964997;59;1141146;-72
2022/05/22 04:44:40;;;;;;;4.33;2.23;;;;;;;11.23;100.00;100483.33;4965883;59;1141170;-72
2022/05/22 04:49:51;;;;;;;8.40;1.57;;;;;;;11.25;100.00;100479.23;4958994;58;1141105;-72
2022/05/22 04:54:57;;;;;;;12.43;2.20;;;;;;;11.30;100.00;100488.14;4903602;59;1141203;-75
2022/05/22 05:00:09;;;;;;;2.87;1.50;;;;;;;11.35;100.00;100485.45;4902037;59;1143400;-73
2022/05/22 05:05:16;;;;;;;8.27;1.70;;;;;;;11.36;100.00;100487.14;4973776;59;1141237;-72
2022/05/22 05:10:22;;;;;;;7.57;1.73;;;;;;;11.38;100.00;100504.23;5059293;58;1141305;-72
2022/05/22 05:15:33;;;;;;;8.17;1.70;;;;;;;11.42;100.00;100501.70;4938997;58;1139223;-75
2022/05/22 05:20:58;;;;;;;4.47;1.60;;;;;;;11.49;100.00;100511.66;4964193;58;1139099;-76
2022/05/22 05:26:07;;;;;;;2.87;1.00;;;;;;;11.57;100.00;100504.42;4838001;59;1139261;-74
2022/05/22 05:31:12;;;;;;;5.83;1.87;;;;;;;11.66;100.00;100511.60;4866507;60;1139324;-72
2022/05/22 05:36:19;;;;;;;12.37;1.90;;;;;;;11.71;100.00;100515.20;4952244;59;1138948;-75
2022/05/22 05:41:37;;;;;;;16.00;2.87;;;;;;;11.73;100.00;100515.92;5027318;58;1141040;-72
2022/05/22 05:46:45;;;;;;;6.87;1.70;;;;;;;11.71;100.00;100516.05;5013304;58;1141036;-71
2022/05/22 05:51:51;;;;;;;5.33;1.60;;;;;;;11.73;100.00;100522.06;4884136;60;1139303;-72
2022/05/22 05:57:00;;;;;;;5.50;1.70;;;;;;;11.84;100.00;100527.34;4933098;58;1138396;-72
2022/05/22 06:02:17;;;;;;;4.73;1.50;;;;;;;11.85;100.00;100525.05;4958235;58;1141078;-74
2022/05/22 06:07:24;;;;;;;5.17;1.97;;;;;;;11.92;100.00;100528.02;5041751;58;1140861;-70
2022/05/22 06:12:29;;;;;;;5.40;1.70;;;;;;;12.00;100.00;100532.70;4974834;58;1141189;-73
2022/05/22 06:17:48;;;;;;;8.40;1.70;;;;;;;12.12;100.00;100533.84;4907510;58;1141072;-73
2022/05/22 06:22:59;;;;;;;6.93;1.73;;;;;;;12.20;100.00;100526.58;5061398;58;1141133;-74
2022/05/22 06:28:22;;;;;;;3.95;1.52;;;;;;;12.39;100.00;100528.01;5043690;58;1141167;-72
2022/05/22 06:33:29;;;;;;;1.03;0.90;;;;;;;12.49;100.00;100524.11;4895918;60;1141201;-71
2022/05/22 06:44:08;;;;;;;7.97;2.00;;;;;;;12.75;100.00;100531.98;4981174;58;1141283;-71
2022/05/22 06:49:30;;;;;;;2.30;1.20;;;;;;;12.74;100.00;100534.77;4900198;58;1141389;-73
2022/05/22 06:54:45;;;;;;;2.03;1.20;;;;;;;12.76;100.00;100528.36;5042817;58;1141164;-74
2022/05/22 07:00:14;;;;;;;5.77;1.63;;;;;;;12.87;100.00;100524.28;5044469;58;1141089;-73
2022/05/22 07:05:26;;;;;;;3.50;1.67;;;;;;;13.17;100.00;100526.09;5044595;58;1141187;-74
2022/05/22 07:16:08;;;;;;;4.93;1.37;;;;;;;13.74;100.00;100523.20;4906788;59;1138784;-69
2022/05/22 07:21:16;;;;;;;3.47;1.43;;;;;;;13.52;97.66;100527.44;4987176;58;1138994;-74
2022/05/22 07:26:37;;;;;;;11.23;2.20;;;;;;;13.35;99.20;100526.28;4991465;57;1136902;-71
2022/05/22 07:32:05;;;;;;;2.93;1.53;;;;;;;13.53;99.27;100520.66;4991191;57;1139155;-72
2022/05/22 07:37:28;;;;;;;5.50;2.00;;;;;;;13.73;96.94;100516.21;4877879;59;1134935;-73
2022/05/22 07:42:36;;;;;;;3.23;1.63;;;;;;;13.58;97.34;100525.08;4990644;58;1139118;-72
2022/05/22 07:48:00;;;;;;;4.23;2.20;;;;;;;13.44;96.12;100524.16;5074032;57;1139386;-72
2022/05/22 07:53:07;;;;;;;4.08;1.67;;;;;;;13.40;97.10;100520.56;4989874;58;1138987;-73
2022/05/22 07:58:33;;;;;;;2.53;1.90;;;;;;;13.44;98.13;100517.52;5087073;57;1139057;-73
2022/05/22 08:03:38;;;;;;;2.73;1.40;;;;;;;13.60;99.11;100509.81;5096026;57;1138969;-73
2022/05/22 08:08:46;;;;;;;4.47;1.60;;;;;;;13.99;99.32;100505.35;4989279;59;1139058;-75
2022/05/22 08:13:59;;;;;;;6.83;1.50;;;;;;;14.46;98.07;100488.64;4992601;58;1139026;-74
2022/05/22 08:19:06;;;;;;;2.17;1.27;;;;;;;14.75;92.70;100498.69;4992679;59;1139032;-75
2022/05/22 08:24:13;;;;;;;4.47;1.37;;;;;;;14.61;90.81;100502.67;4909156;59;1139025;-74
2022/05/22 08:29:21;;;;;;;2.43;1.10;;;;;;;14.48;89.02;100505.30;4936598;59;1139064;-73
2022/05/22 08:34:27;;;;;;;0.95;0.60;;;;;;;14.67;90.17;100498.08;4992298;58;1139289;-74
2022/05/22 08:39:33;;;;;;;2.47;0.73;;;;;;;14.74;83.58;100515.16;5013474;57;1139063;-72
2022/05/22 08:44:41;;;;;;;1.17;0.70;;;;;;;14.68;84.39;100507.73;5107877;57;1139030;-70
2022/05/22 08:49:50;;;;;;;2.97;0.97;;;;;;;14.61;85.67;100505.82;5159118;56;1139019;-75
2022/05/22 08:55:03;;;;;;;4.00;1.33;;;;;;;14.46;84.24;100505.94;5160540;56;1139141;-71
2022/05/22 09:00:11;;;;;;;3.78;0.78;;;;;;;14.55;85.89;100507.23;4956363;59;1138947;-70
2022/05/22 09:05:20;;;;;;;1.37;0.90;;;;;;;14.71;86.39;100502.63;4992754;58;1139015;-74
2022/05/22 09:10:48;;;;;;;1.67;1.10;;;;;;;14.60;84.50;100513.45;4992804;58;1139043;-71
2022/05/22 09:16:10;;;;;;;1.13;0.93;;;;;;;14.39;86.67;100517.11;4992988;58;1139009;-73
2022/05/22 09:21:52;;;;;;;1.67;1.10;;;;;;;14.36;88.01;100518.72;4991916;58;1136933;-71
2022/05/22 09:27:14;;;;;;;3.23;1.50;;;;;;;14.38;87.48;100526.07;4992855;58;1137211;-74
2022/05/22 09:32:46;;;;;;;1.23;0.97;;;;;;;14.63;88.26;100516.67;4992600;58;1137007;-73
2022/05/22 09:38:36;;;;;;;1.07;0.90;;;;;;;14.72;87.29;100518.95;4993028;58;1135118;-70
2022/05/22 09:44:08;;;;;;;3.50;1.00;;;;;;;14.74;86.19;100521.81;4992851;58;1138901;-73
2022/05/22 09:49:37;;;;;;;6.75;1.32;;;;;;;14.84;86.97;100522.26;4998133;58;1139105;-73
2022/05/22 09:55:13;;;;;;;2.27;1.27;;;;;;;15.10;85.06;100517.47;5001935;58;1139111;-70
2022/05/22 10:00:38;;;;;;;0.50;0.50;;;;;;;15.07;82.63;100520.91;4997510;58;1139056;-72
2022/05/22 10:05:57;;;;;;;3.40;1.60;;;;;;;15.02;83.14;100521.84;4999779;58;1139042;-74
2022/05/22 10:11:28;;;;;;;1.53;1.17;;;;;;;14.94;82.54;100517.26;5037174;58;1139082;-74
2022/05/22 10:16:38;;;;;;;0.80;0.80;;;;;;;14.95;84.88;100518.94;5062620;58;1137108;-75
2022/05/22 10:21:52;;;;;;;1.50;0.90;;;;;;;15.29;85.23;100517.83;5061677;58;1137050;-73
2022/05/22 10:27:53;;;;;;;0.73;0.73;;;;;;;15.79;86.79;100524.89;4984829;58;1137049;-70
2022/05/22 10:33:26;;;;;;;3.33;1.00;;;;;;;15.94;82.58;100524.35;4983919;58;1134918;-74
2022/05/22 10:38:37;;;;;;;0.60;0.60;;;;;;;16.08;78.13;100523.80;4983991;58;1138991;-73
2022/05/22 10:43:46;;;;;;;0.73;0.33;;;;;;;16.02;74.76;100526.61;4983324;58;1139283;-73
2022/05/22 10:48:57;;;;;;;1.47;0.47;;;;;;;15.87;71.75;100529.47;4991579;58;1138433;-74
2022/05/22 10:54:03;;;;;;;3.77;0.70;;;;;;;15.79;73.52;100541.38;5045377;57;1138914;-75
2022/05/22 10:59:20;;;;;;;1.67;0.80;;;;;;;15.72;74.14;100534.50;5020152;58;1139554;-70
2022/05/22 11:04:43;;;;;;;0.70;0.70;;;;;;;15.93;75.46;100531.52;5045110;57;1139076;-70
2022/05/22 11:09:51;;;;;;;0.60;0.60;;;;;;;16.13;72.00;100527.69;5045560;58;1139067;-71
2022/05/22 11:15:28;;;;;;;1.90;1.03;;;;;;;16.29;73.71;100530.98;5045609;57;1139097;-72
2022/05/22 11:20:35;;;;;;;1.87;0.93;;;;;;;16.38;73.92;100529.20;5045649;58;1139175;-76
2022/05/22 11:25:55;;;;;;;2.23;1.20;;;;;;;16.49;73.83;100531.64;5045530;57;1139039;-72
2022/05/22 11:31:24;;;;;;;0.60;0.60;;;;;;;16.53;73.70;100527.64;5045383;58;1139067;-74
2022/05/22 11:37:10;;;;;;;0.60;0.60;;;;;;;16.64;74.69;100520.75;5045854;57;1139159;-74
2022/05/22 11:42:37;;;;;;;1.47;0.50;;;;;;;16.94;74.11;100523.91;4929757;59;1137052;-73
2022/05/22 11:48:06;;;;;;;1.40;0.40;;;;;;;16.92;71.84;100524.06;5045872;57;1136913;-74
2022/05/22 11:53:44;;;;;;;0.47;0.40;;;;;;;16.85;71.44;100537.70;5044680;58;1137062;-71
2022/05/22 11:59:06;;;;;;;1.27;0.67;;;;;;;16.57;68.05;100542.36;5044687;58;1139082;-71
2022/05/22 12:04:48;;;;;;;3.43;0.60;;;;;;;16.38;70.87;100551.39;4964346;59;1139061;-70
2022/05/22 12:10:22;;;;;;;0.83;0.80;;;;;;;16.43;70.86;100546.44;4964619;59;1139024;-71
2022/05/22 12:15:50;;;;;;;0.60;0.57;;;;;;;16.51;71.26;100539.80;5045939;58;1139038;-70
2022/05/22 12:21:24;;;;;;;3.33;0.80;;;;;;;16.47;68.35;100546.48;5045399;57;1139128;-71
2022/05/22 12:26:31;;;;;;;0.97;0.50;;;;;;;16.34;70.18;100547.38;5045504;58;1139028;-73
2022/05/22 12:31:47;;;;;;;0.57;0.57;;;;;;;16.36;70.69;100542.70;5045324;57;1139107;-75
2022/05/22 12:36:57;;;;;;;4.42;0.98;;;;;;;16.44;73.00;100545.94;5044163;58;1139106;-69
2022/05/22 12:42:17;;;;;;;3.10;0.60;;;;;;;16.36;71.90;100541.36;5016787;58;1136987;-74
2022/05/22 12:47:24;;;;;;;4.63;0.80;;;;;;;16.37;71.53;100537.70;4965377;59;1137122;-70
2022/05/22 12:52:33;;;;;;;0.67;0.67;;;;;;;16.57;72.29;100532.17;4964338;59;1136912;-76
2022/05/22 12:57:38;;;;;;;1.33;0.70;;;;;;;16.87;73.70;100518.36;5046158;58;1137145;-74
2022/05/22 13:02:47;;;;;;;0.77;0.50;;;;;;;17.03;68.85;100530.45;5045749;57;1137215;-73
2022/05/22 13:07:53;;;;;;;0.73;0.40;;;;;;;17.13;66.72;100513.78;5045570;58;1136994;-74
2022/05/22 13:13:09;;;;;;;0.40;0.30;;;;;;;17.36;68.10;100514.55;4991609;57;1136966;-75
2022/05/22 13:18:18;;;;;;;0.67;0.40;;;;;;;17.55;63.16;100508.42;4982952;59;1136985;-76
2022/05/22 13:23:30;;;;;;;0.77;0.37;;;;;;;17.71;64.73;100503.62;5059680;58;1137011;-71
2022/05/22 13:28:45;;;;;;;0.40;0.33;;;;;;;17.77;65.17;100510.97;5064757;57;1135280;-71
2022/05/22 13:34:15;;;;;;;0.40;0.40;;;;;;;17.91;65.89;100510.31;5065018;58;1139200;-73
2022/05/22 13:39:28;;;;;;;0.50;0.30;;;;;;;18.00;64.02;100512.51;5064714;58;1139170;-72
2022/05/22 13:44:53;;;;;;;;;;;;;;;17.92;59.86;100509.31;5025977;58;1139037;-74
2022/05/22 13:55:32;;;;;;;0.60;0.60;;;;;;;17.92;61.48;100517.84;5065165;58;1137271;-75
2022/05/22 14:00:43;;;;;;;0.30;0.30;;;;;;;17.97;61.13;100516.02;5064841;58;1139057;-73
2022/05/22 14:05:54;;;;;;;0.47;0.30;;;;;;;18.03;59.16;100507.30;5064683;58;1139108;-73
2022/05/22 14:11:12;;;;;;;0.50;0.50;;;;;;;18.04;61.13;100511.15;5062336;58;1139137;-74
2022/05/22 14:16:28;;;;;;;1.25;0.47;;;;;;;18.00;60.84;100504.98;5067455;58;1139155;-71
2022/05/22 14:21:38;;;;;;;1.22;0.35;;;;;;;18.17;59.52;100506.16;5065432;58;1139000;-70
2022/05/22 14:26:44;;;;;;;1.32;0.70;;;;;;;18.21;59.46;100498.59;5066486;58;1139015;-71
2022/05/22 14:31:50;;;;;;;2.92;0.50;;;;;;;18.41;59.58;100495.06;5082330;58;1139101;-73
2022/05/22 14:37:00;;;;;;;0.78;0.50;;;;;;;18.49;57.03;100497.71;5044611;58;1138990;-74
2022/05/22 14:42:08;;;;;;;1.60;0.62;;;;;;;18.32;58.63;100492.08;5078818;57;1139051;-73
2022/05/22 14:47:21;;;;;;;1.32;0.80;;;;;;;18.39;59.89;100493.05;5081198;58;1139232;-76
2022/05/22 14:52:39;;;;;;;1.80;0.42;;;;;;;18.41;59.87;100496.41;5081218;58;1137206;-73
2022/05/22 14:57:53;;;;;;;0.75;0.50;;;;;;;18.53;58.34;100491.02;5146221;57;1136918;-75
2022/05/22 15:03:14;;;;;;;10.40;9.55;;;;;;;18.78;60.96;100495.35;5168537;57;1136982;-73
2022/05/22 15:08:39;;;;;;;0.93;0.72;;;;;;;18.91;59.90;100490.78;5168447;57;1139191;-73
2022/05/22 15:13:41;;;;;;;2.42;0.60;;;;;;;18.88;59.48;100499.16;5167867;57;1136936;-75
2022/05/22 15:29:45;;;;;;;3.65;1.60;;;;;;;18.36;56.08;100504.09;5150423;57;1139397;-75
2022/05/22 15:35:01;;;;;;;1.40;0.53;;;;;;;18.00;58.44;100500.47;5066910;57;1139078;-74
2022/05/22 15:40:09;;;;;;;0.65;0.50;;;;;;;17.77;58.68;100500.27;5015057;58;1138984;-73
2022/05/22 15:45:18;;;;;;;0.47;0.47;;;;;;;17.72;59.75;100486.55;5056094;58;1139150;-73
2022/05/22 15:55:47;;;;;;;1.15;0.57;;;;;;;18.14;57.98;100478.88;4971991;59;1139413;-74
2022/05/22 16:00:54;;;;;;;0.50;0.40;;;;;;;18.17;58.21;100475.37;4976390;57;1139298;-74
2022/05/22 16:06:00;;;;;;;0.75;0.53;;;;;;;18.11;56.77;100473.35;4971880;58;1139065;-72
2022/05/22 16:11:06;;;;;;;1.77;1.02;;;;;;;18.02;58.38;100466.84;4976286;57;1138984;-74
2022/05/22 16:16:23;;;;;;;0.93;0.50;;;;;;;17.98;58.27;100466.34;4971918;59;1139169;-73
2022/05/22 16:21:30;;;;;;;1.82;0.90;;;;;;;17.87;59.22;100472.03;4973102;57;1139094;-73
